Time;durP1;ratioP1;P1;durP2;ratioP2;P2;SDS_P1;SDS_P2;PMS_P1;PMS_P2;Temp;Humidity;BMP_temperature;BMP_pressure;BME280_temperature;BME280_humidity;BME280_pressure;Samples;Min_cycle;Max_cycle;Signal;HPM_P1;HPM_P2
2021/04/07 00:02:17;;;;;;;24.00;6.00;;;0.40;99.90;;;;;;5095040;28;20443;-73
2021/04/07 00:05:02;;;;;;;13.57;5.72;;;0.50;99.90;;;;;;5094706;28;20534;-72
2021/04/07 00:07:28;;;;;;;14.68;5.85;;;0.50;99.90;;;;;;5094669;28;20408;-72
2021/04/07 00:09:53;;;;;;;15.88;5.65;;;0.50;99.90;;;;;;5093140;28;20032;-73
2021/04/07 00:12:19;;;;;;;20.45;5.72;;;0.50;99.90;;;;;;5093668;28;20086;-72
2021/04/07 00:14:45;;;;;;;15.82;5.55;;;0.50;99.90;;;;;;5094804;28;20027;-72
2021/04/07 00:17:10;;;;;;;17.40;6.53;;;0.50;99.90;;;;;;5094487;28;20107;-73
2021/04/07 00:19:36;;;;;;;21.75;5.85;;;0.50;99.90;;;;;;5094437;28;20028;-73
2021/04/07 00:22:01;;;;;;;16.92;5.38;;;0.50;99.90;;;;;;5093148;28;20054;-73
2021/04/07 00:24:27;;;;;;;12.80;4.95;;;0.50;99.90;;;;;;5094736;28;20016;-72
2021/04/07 00:26:52;;;;;;;20.00;5.88;;;0.40;99.90;;;;;;5094580;28;20099;-72
2021/04/07 00:29:18;;;;;;;19.77;6.30;;;0.40;99.90;;;;;;5094569;28;20028;-72
2021/04/07 00:31:43;;;;;;;11.43;4.80;;;0.40;99.90;;;;;;5093578;28;20123;-72
2021/04/07 00:34:10;;;;;;;17.90;5.55;;;0.40;99.90;;;;;;5094222;28;20060;-72
2021/04/07 00:36:35;;;;;;;17.77;6.90;;;0.40;99.90;;;;;;5094192;28;20457;-72
2021/04/07 00:39:02;;;;;;;19.75;5.38;;;0.30;99.90;;;;;;5092587;28;20080;-72
2021/04/07 00:41:27;;;;;;;17.13;6.22;;;0.30;99.90;;;;;;5092844;28;20077;-72
2021/04/07 00:43:53;;;;;;;22.00;6.38;;;0.20;99.90;;;;;;5094406;28;20024;-72
2021/04/07 00:46:18;;;;;;;14.32;5.20;;;0.10;99.90;;;;;;5094353;28;20024;-72
2021/04/07 00:48:44;;;;;;;20.42;6.13;;;0.20;99.90;;;;;;5094319;28;20457;-72
2021/04/07 00:51:11;;;;;;;23.27;6.63;;;0.20;99.90;;;;;;5093690;28;20098;-72
2021/04/07 00:53:37;;;;;;;19.95;6.15;;;0.10;99.90;;;;;;5094200;28;20046;-72
2021/04/07 00:56:03;;;;;;;17.80;6.75;;;0.10;99.90;;;;;;5094191;28;20428;-72
2021/04/07 00:58:29;;;;;;;18.25;5.45;;;0.00;99.90;;;;;;5094140;28;20024;-72
2021/04/07 01:00:54;;;;;;;16.15;5.20;;;0.10;99.90;;;;;;5093639;28;20079;-72
2021/04/07 01:03:20;;;;;;;20.63;6.97;;;0.00;99.90;;;;;;5093800;28;20058;-72
2021/04/07 01:05:46;;;;;;;21.95;5.63;;;0.00;99.90;;;;;;5094029;28;20050;-72
2021/04/07 01:08:11;;;;;;;18.98;5.28;;;0.10;99.90;;;;;;5093996;28;20032;-72
2021/04/07 01:10:37;;;;;;;23.75;5.80;;;0.00;99.90;;;;;;5094004;28;20103;-72
2021/04/07 01:13:04;;;;;;;13.48;5.50;;;0.00;99.90;;;;;;5094018;28;20373;-72
2021/04/07 01:15:30;;;;;;;22.25;5.93;;;0.00;99.90;;;;;;5093966;28;20525;-72
2021/04/07 01:17:57;;;;;;;16.77;5.60;;;0.00;99.90;;;;;;5093676;28;20028;-72
2021/04/07 01:20:23;;;;;;;25.70;6.30;;;0.00;99.90;;;;;;5093545;28;20039;-72
2021/04/07 01:22:52;;;;;;;19.20;5.63;;;0.00;99.90;;;;;;5093305;28;20035;-72
2021/04/07 01:25:18;;;;;;;21.88;6.10;;;0.00;99.90;;;;;;5093888;28;20418;-72
2021/04/07 01:27:44;;;;;;;18.90;5.90;;;-0.10;99.90;;;;;;5092336;28;20103;-72
2021/04/07 01:30:13;;;;;;;17.73;5.75;;;0.00;99.90;;;;;;5093809;28;20028;-72
2021/04/07 01:32:39;;;;;;;17.05;5.78;;;-0.10;99.90;;;;;;5092065;28;20024;-72
2021/04/07 01:35:08;;;;;;;17.67;6.70;;;0.00;99.90;;;;;;5093813;28;20020;-72
2021/04/07 01:37:35;;;;;;;19.95;6.78;;;-0.20;99.90;;;;;;5093763;28;20024;-72
2021/04/07 01:40:04;;;;;;;24.30;6.75;;;-0.20;99.90;;;;;;5092025;28;20016;-72
2021/04/07 01:42:31;;;;;;;16.40;8.00;;;-0.20;99.90;;;;;;5092039;28;20396;-72
2021/04/07 01:44:59;;;;;;;19.40;7.65;;;-0.20;99.90;;;;;;5095828;28;20024;-72
2021/04/07 01:47:25;;;;;;;25.13;8.50;;;-0.20;99.90;;;;;;5097613;28;20074;-72
2021/04/07 01:49:51;;;;;;;22.70;6.55;;;-0.20;99.90;;;;;;5096049;28;20453;-72
2021/04/07 01:52:17;;;;;;;23.13;7.75;;;-0.20;99.90;;;;;;5097245;28;20055;-72
2021/04/07 01:54:42;;;;;;;23.27;7.95;;;-0.20;99.90;;;;;;5097415;28;20024;-72
2021/04/07 01:57:08;;;;;;;22.98;8.02;;;-0.10;99.90;;;;;;5095674;28;20093;-72
2021/04/07 01:59:34;;;;;;;18.48;7.22;;;-0.20;99.90;;;;;;5097336;28;20103;-72
2021/04/07 02:02:01;;;;;;;20.88;8.00;;;-0.20;99.90;;;;;;5095412;28;20512;-72
2021/04/07 02:04:27;;;;;;;25.67;8.75;;;-0.20;99.90;;;;;;5097237;28;20453;-72
2021/04/07 02:06:52;;;;;;;19.42;7.30;;;-0.20;99.90;;;;;;5095809;28;20024;-72
2021/04/07 02:09:20;;;;;;;22.58;8.32;;;-0.20;99.90;;;;;;5096181;28;20372;-72
2021/04/07 02:11:47;;;;;;;22.83;8.35;;;-0.20;99.90;;;;;;5096887;28;20032;-72
2021/04/07 02:14:14;;;;;;;22.42;8.65;;;-0.20;99.90;;;;;;5096791;28;20070;-72
2021/04/07 02:16:40;;;;;;;24.05;9.20;;;-0.20;99.90;;;;;;5097001;28;20016;-71
2021/04/07 02:19:10;;;;;;;24.73;9.40;;;-0.20;99.90;;;;;;5096509;28;20082;-72
2021/04/07 02:21:37;;;;;;;21.48;9.27;;;-0.20;99.90;;;;;;5095877;28;20063;-72
2021/04/07 02:24:03;;;;;;;21.08;9.07;;;-0.30;99.90;;;;;;5095020;28;20024;-72
2021/04/07 02:26:32;;;;;;;22.73;9.90;;;-0.20;99.90;;;;;;5096849;28;20028;-72
2021/04/07 02:28:58;;;;;;;24.67;9.98;;;-0.10;99.90;;;;;;5095634;28;20181;-72
2021/04/07 02:31:23;;;;;;;24.02;11.00;;;-0.10;99.90;;;;;;5096738;28;20028;-72
2021/04/07 02:33:49;;;;;;;24.33;11.23;;;-0.10;99.90;;;;;;5095299;28;20388;-72
2021/04/07 02:36:15;;;;;;;26.38;12.18;;;-0.10;99.90;;;;;;5096634;28;20024;-72
2021/04/07 02:38:40;;;;;;;31.52;12.63;;;-0.20;99.90;;;;;;5094768;28;20035;-72
2021/04/07 02:41:06;;;;;;;26.38;12.55;;;-0.20;99.90;;;;;;5095511;28;20024;-72
2021/04/07 02:43:31;;;;;;;27.88;12.98;;;-0.30;99.90;;;;;;5094672;28;20024;-72
2021/04/07 02:45:59;;;;;;;31.30;13.73;;;-0.10;99.90;;;;;;5096189;28;20020;-72
2021/04/07 02:48:25;;;;;;;35.53;14.63;;;-0.10;99.90;;;;;;5096412;28;20475;-72
2021/04/07 02:50:50;;;;;;;31.45;13.77;;;0.00;99.90;;;;;;5095176;28;20020;-72
2021/04/07 02:53:16;;;;;;;34.75;14.98;;;0.00;99.90;;;;;;5095914;28;20030;-72
2021/04/07 02:55:41;;;;;;;24.35;13.25;;;0.10;99.90;;;;;;5095560;28;20035;-72
2021/04/07 02:58:07;;;;;;;36.17;13.32;;;0.20;99.90;;;;;;5094773;28;20119;-72
2021/04/07 03:00:37;;;;;;;33.42;12.98;;;0.20;99.90;;;;;;5094313;28;20040;-72
2021/04/07 03:03:02;;;;;;;29.38;12.23;;;0.20;99.90;;;;;;5095813;28;20035;-72
2021/04/07 03:05:28;;;;;;;26.50;12.70;;;0.30;99.90;;;;;;5096116;28;20032;-72
2021/04/07 03:07:53;;;;;;;33.08;12.70;;;0.30;99.90;;;;;;5095470;28;20073;-72
2021/04/07 03:10:19;;;;;;;28.92;12.13;;;0.40;99.90;;;;;;5094498;28;20350;-72
2021/04/07 03:12:45;;;;;;;27.30;11.85;;;0.40;99.90;;;;;;5095924;28;20028;-72
2021/04/07 03:15:10;;;;;;;32.08;12.40;;;0.40;99.90;;;;;;5094461;28;20047;-72
2021/04/07 03:17:37;;;;;;;31.08;12.45;;;0.40;99.90;;;;;;5095850;28;20027;-72
2021/04/07 03:20:06;;;;;;;27.25;10.88;;;0.50;99.90;;;;;;5095753;28;20389;-72
2021/04/07 03:22:31;;;;;;;29.42;11.85;;;0.40;99.90;;;;;;5095662;28;20020;-72
2021/04/07 03:24:57;;;;;;;26.33;11.18;;;0.50;99.90;;;;;;5095430;28;20372;-72
2021/04/07 03:27:23;;;;;;;25.15;10.93;;;0.50;99.90;;;;;;5094225;28;20024;-72
2021/04/07 03:29:48;;;;;;;25.45;10.52;;;0.50;99.90;;;;;;5095573;28;20411;-72
2021/04/07 03:32:14;;;;;;;24.52;10.95;;;0.50;99.90;;;;;;5095569;28;20038;-72
2021/04/07 03:34:39;;;;;;;18.83;10.55;;;0.50;99.90;;;;;;5095432;28;20049;-72
2021/04/07 03:37:05;;;;;;;22.75;10.15;;;0.50;99.90;;;;;;5095187;28;20020;-72
2021/04/07 03:39:30;;;;;;;21.50;9.80;;;0.50;99.90;;;;;;5095387;28;20028;-72
2021/04/07 03:41:56;;;;;;;27.42;10.68;;;0.40;99.90;;;;;;5077417;28;20024;-72
2021/04/07 03:44:22;;;;;;;24.95;10.18;;;0.40;99.90;;;;;;5095303;28;20031;-72
2021/04/07 03:46:52;;;;;;;22.95;10.07;;;0.40;99.90;;;;;;5095268;28;20016;-72
2021/04/07 03:49:18;;;;;;;23.20;9.82;;;0.40;99.90;;;;;;5094709;28;20020;-72
2021/04/07 03:51:43;;;;;;;19.95;10.30;;;0.50;99.90;;;;;;5076542;28;20024;-72
2021/04/07 03:54:09;;;;;;;27.80;11.10;;;0.50;99.90;;;;;;5093656;28;20020;-72
2021/04/07 03:56:34;;;;;;;22.58;10.45;;;0.50;99.90;;;;;;5095120;28;20028;-72
2021/04/07 03:59:00;;;;;;;20.58;10.85;;;0.60;99.90;;;;;;5094734;28;20070;-72
2021/04/07 04:01:26;;;;;;;30.17;11.55;;;0.60;99.90;;;;;;5094264;28;20519;-72
2021/04/07 04:03:51;;;;;;;25.80;12.90;;;0.60;99.90;;;;;;5094994;28;20024;-72
2021/04/07 04:06:17;;;;;;;29.67;13.20;;;0.70;99.90;;;;;;5093915;28;20077;-72
2021/04/07 04:08:42;;;;;;;29.17;13.27;;;0.70;99.90;;;;;;5093036;28;20427;-72
2021/04/07 04:11:08;;;;;;;35.85;15.18;;;0.70;99.90;;;;;;5094570;28;20423;-72
2021/04/07 04:13:34;;;;;;;35.08;15.38;;;0.70;99.90;;;;;;5092967;28;20024;-72
2021/04/07 04:15:59;;;;;;;31.60;15.20;;;0.80;99.90;;;;;;5094478;28;20028;-72
2021/04/07 04:18:25;;;;;;;34.05;15.10;;;0.80;99.90;;;;;;5092850;28;20063;-72
2021/04/07 04:20:50;;;;;;;27.73;14.80;;;0.80;99.90;;;;;;5094539;28;20071;-72
2021/04/07 04:23:16;;;;;;;35.28;15.82;;;0.80;99.90;;;;;;5093208;28;20028;-72
2021/04/07 04:25:41;;;;;;;32.97;15.88;;;0.80;99.90;;;;;;5093501;28;20028;-72
2021/04/07 04:28:07;;;;;;;35.80;15.48;;;0.80;99.90;;;;;;5093419;28;20062;-72
2021/04/07 04:30:32;;;;;;;28.92;12.95;;;0.90;99.90;;;;;;5093595;28;20440;-72
2021/04/07 04:32:58;;;;;;;29.40;16.02;;;0.90;99.90;;;;;;5094508;28;20039;-72
2021/04/07 04:35:24;;;;;;;39.85;18.17;;;0.90;99.90;;;;;;5094544;28;20062;-72
2021/04/07 04:37:50;;;;;;;43.33;19.95;;;0.90;99.90;;;;;;5092974;28;20112;-72
2021/04/07 04:40:16;;;;;;;44.78;22.08;;;0.90;99.90;;;;;;5093804;28;20032;-72
2021/04/07 04:42:42;;;;;;;44.38;23.10;;;0.90;99.90;;;;;;5094126;28;20026;-72
2021/04/07 04:45:08;;;;;;;52.40;23.35;;;0.90;99.90;;;;;;5094340;28;20035;-72
2021/04/07 04:47:34;;;;;;;45.35;19.35;;;0.90;99.90;;;;;;5094077;28;20453;-72
2021/04/07 04:50:00;;;;;;;48.67;22.48;;;1.00;99.90;;;;;;5094307;28;20024;-72
2021/04/07 04:52:26;;;;;;;46.13;23.15;;;1.00;99.90;;;;;;5094011;28;20085;-72
2021/04/07 04:54:52;;;;;;;52.13;23.98;;;1.00;99.90;;;;;;5093992;28;20091;-72
2021/04/07 04:57:17;;;;;;;41.88;18.63;;;1.10;99.90;;;;;;5092783;28;20032;-72
2021/04/07 04:59:43;;;;;;;44.67;23.55;;;1.10;99.90;;;;;;5094125;28;20024;-72
2021/04/07 05:02:09;;;;;;;47.17;23.65;;;1.10;99.90;;;;;;5093404;28;20051;-72
2021/04/07 05:04:34;;;;;;;55.50;25.73;;;1.10;99.90;;;;;;5094188;28;20377;-72
2021/04/07 05:07:00;;;;;;;50.40;24.98;;;1.10;99.90;;;;;;5094111;28;20023;-72
2021/04/07 05:09:25;;;;;;;45.00;21.95;;;1.10;99.90;;;;;;5093501;28;20027;-72
2021/04/07 05:11:51;;;;;;;43.72;23.05;;;1.10;99.90;;;;;;5093758;28;20118;-72
2021/04/07 05:14:17;;;;;;;45.20;23.73;;;1.20;99.90;;;;;;5093758;28;20465;-72
2021/04/07 05:16:43;;;;;;;45.50;23.52;;;1.20;99.90;;;;;;5094558;28;20051;-72
2021/04/07 05:19:09;;;;;;;45.85;23.90;;;1.20;99.90;;;;;;5098240;28;20062;-72
2021/04/07 05:21:35;;;;;;;47.50;22.58;;;1.20;99.90;;;;;;5097804;28;20388;-72
2021/04/07 05:24:00;;;;;;;44.20;22.25;;;1.20;99.90;;;;;;5096961;28;20020;-72
2021/04/07 05:26:26;;;;;;;46.20;23.15;;;1.20;99.90;;;;;;5096869;28;20020;-72
2021/04/07 05:28:51;;;;;;;53.58;25.67;;;1.30;99.90;;;;;;5097453;28;20059;-72
2021/04/07 05:31:18;;;;;;;52.70;25.73;;;1.30;99.90;;;;;;5097943;28;20032;-72
2021/04/07 05:33:44;;;;;;;56.15;26.23;;;1.20;99.90;;;;;;5097909;28;20052;-72
2021/04/07 05:36:12;;;;;;;61.28;28.73;;;1.30;99.90;;;;;;5097884;28;20473;-72
2021/04/07 05:38:38;;;;;;;56.63;27.52;;;1.30;99.90;;;;;;5097831;28;20365;-72
2021/04/07 05:41:05;;;;;;;59.90;27.95;;;1.30;99.90;;;;;;5097443;28;20377;-72
2021/04/07 05:43:32;;;;;;;68.13;31.02;;;1.40;99.90;;;;;;5097413;28;20457;-72
2021/04/07 05:45:58;;;;;;;58.75;29.45;;;1.40;99.90;;;;;;5097698;28;20016;-72
2021/04/07 05:48:23;;;;;;;69.75;30.98;;;1.40;99.90;;;;;;5079736;28;20369;-72
2021/04/07 05:50:50;;;;;;;71.53;32.95;;;1.30;99.90;;;;;;5095686;28;20028;-72
2021/04/07 05:53:16;;;;;;;72.35;32.92;;;1.30;99.90;;;;;;5097578;28;20042;-72
2021/04/07 05:55:45;;;;;;;71.25;34.47;;;1.30;99.90;;;;;;5095678;28;20111;-72
2021/04/07 05:58:11;;;;;;;73.10;34.50;;;1.30;99.90;;;;;;5097367;28;20101;-72
2021/04/07 06:00:37;;;;;;;83.10;37.35;;;1.20;99.90;;;;;;5096936;28;20075;-73
2021/04/07 06:03:04;;;;;;;78.43;36.17;;;1.20;99.90;;;;;;5079006;28;20040;-72
2021/04/07 06:05:31;;;;;;;80.60;34.97;;;1.30;99.90;;;;;;5095443;28;20467;-73
2021/04/07 06:07:57;;;;;;;74.65;33.92;;;1.30;99.90;;;;;;5095736;28;20069;-73
2021/04/07 06:10:24;;;;;;;81.07;34.80;;;1.30;99.90;;;;;;5116395;27;20361;-71
2021/04/07 06:12:51;;;;;;;76.57;35.08;;;1.30;99.90;;;;;;5115216;28;20476;-73
2021/04/07 06:15:17;;;;;;;76.95;33.75;;;1.30;99.90;;;;;;5116435;28;20468;-73
2021/04/07 06:17:52;;;;;;;83.20;34.05;;;1.30;99.90;;;;;;5114850;28;20098;-73
2021/04/07 06:20:17;;;;;;;73.25;33.08;;;1.30;99.90;;;;;;5111567;28;20414;-73
2021/04/07 06:22:43;;;;;;;71.00;29.92;;;1.30;99.90;;;;;;5115764;28;20035;-72
2021/04/07 06:25:09;;;;;;;69.72;32.03;;;1.30;99.90;;;;;;5115761;27;20027;-73
2021/04/07 06:27:34;;;;;;;75.70;34.20;;;1.30;99.90;;;;;;5116006;28;20182;-73
2021/04/07 06:30:00;;;;;;;71.78;32.38;;;1.30;99.90;;;;;;5096863;28;20108;-73
2021/04/07 06:32:27;;;;;;;71.43;32.25;;;1.40;99.90;;;;;;5107458;28;20095;-73
2021/04/07 06:34:53;;;;;;;71.68;31.55;;;1.40;99.90;;;;;;5106405;28;20028;-73
2021/04/07 06:37:18;;;;;;;69.30;30.45;;;1.40;99.90;;;;;;5108364;28;20076;-73
2021/04/07 06:39:44;;;;;;;66.72;29.52;;;1.50;99.90;;;;;;5115699;28;20038;-73
2021/04/07 06:42:10;;;;;;;57.30;26.42;;;1.50;99.90;;;;;;5115047;28;20028;-72
2021/04/07 06:44:35;;;;;;;60.30;27.17;;;1.50;99.90;;;;;;5114606;28;20023;-73
2021/04/07 06:47:04;;;;;;;55.60;27.85;;;1.50;99.90;;;;;;5116769;28;20023;-72
2021/04/07 06:49:32;;;;;;;57.80;26.40;;;1.50;99.90;;;;;;5114419;28;20076;-73
2021/04/07 06:51:58;;;;;;;55.17;25.50;;;1.50;99.90;;;;;;5110918;28;20081;-72
2021/04/07 06:54:26;;;;;;;52.85;24.90;;;1.60;99.90;;;;;;5113419;28;20031;-72
2021/04/07 06:56:52;;;;;;;52.20;24.20;;;1.60;99.90;;;;;;5112010;28;20102;-73
2021/04/07 06:59:18;;;;;;;49.97;24.27;;;1.70;99.90;;;;;;5114946;28;20027;-73
2021/04/07 07:01:43;;;;;;;59.20;25.25;;;1.60;99.90;;;;;;5113435;28;20051;-73
2021/04/07 07:04:09;;;;;;;53.83;24.85;;;1.70;99.90;;;;;;5113607;28;20343;-73
2021/04/07 07:06:34;;;;;;;55.72;24.10;;;1.70;99.90;;;;;;5114490;28;20031;-72
2021/04/07 07:09:13;;;;;;;53.17;25.42;;;1.70;99.90;;;;;;5110603;28;20076;-68
2021/04/07 07:11:39;;;;;;;49.85;23.30;;;1.70;99.90;;;;;;5115187;28;20081;-70
2021/04/07 07:14:05;;;;;;;61.33;26.92;;;1.70;99.90;;;;;;5115499;28;20384;-70
2021/04/07 07:16:30;;;;;;;54.50;24.30;;;1.70;99.90;;;;;;5111207;28;20499;-70
2021/04/07 07:18:56;;;;;;;55.60;24.73;;;1.70;99.90;;;;;;5116002;28;20059;-69
2021/04/07 07:21:21;;;;;;;51.33;23.67;;;1.60;99.90;;;;;;5109231;28;20060;-68
2021/04/07 07:23:48;;;;;;;56.17;25.88;;;1.50;99.90;;;;;;5095687;28;20093;-69
2021/04/07 07:26:17;;;;;;;51.67;24.67;;;1.60;99.90;;;;;;5112089;28;20024;-70
2021/04/07 07:28:48;;;;;;;55.60;25.38;;;1.60;99.90;;;;;;5080974;28;20023;-70
2021/04/07 07:31:18;;;;;;;54.75;24.10;;;1.60;99.90;;;;;;5112613;28;20046;-68
2021/04/07 07:33:44;;;;;;;49.05;23.02;;;1.60;99.90;;;;;;5104118;28;20037;-72
2021/04/07 07:36:10;;;;;;;46.80;19.92;;;1.60;99.90;;;;;;5113634;28;20043;-66
2021/04/07 07:38:44;;;;;;;45.25;21.33;;;1.70;99.90;;;;;;5115270;28;20023;-72
2021/04/07 07:41:09;;;;;;;37.80;17.92;;;1.70;99.90;;;;;;5108231;28;20080;-72
2021/04/07 07:43:36;;;;;;;47.17;23.13;;;1.80;99.90;;;;;;5106472;28;20024;-71
2021/04/07 07:46:11;;;;;;;45.67;21.10;;;1.90;99.90;;;;;;5115049;28;20468;-71
2021/04/07 07:48:38;;;;;;;47.63;20.92;;;1.90;99.90;;;;;;5115869;28;20027;-72
2021/04/07 07:51:13;;;;;;;40.97;21.92;;;2.00;99.90;;;;;;5114110;28;20024;-70
2021/04/07 07:53:39;;;;;;;43.50;21.30;;;2.10;99.90;;;;;;5097050;28;20028;-72
2021/04/07 07:56:05;;;;;;;38.13;20.77;;;2.10;99.90;;;;;;5113274;28;20392;-72
2021/04/07 07:58:30;;;;;;;40.25;20.05;;;2.30;99.90;;;;;;5113940;28;20024;-71
2021/04/07 08:01:14;;;;;;;38.63;20.38;;;2.30;99.90;;;;;;5109857;28;20036;-72
2021/04/07 08:03:39;;;;;;;38.25;19.65;;;2.20;99.90;;;;;;5113899;28;20499;-72
2021/04/07 08:06:05;;;;;;;37.42;20.67;;;2.20;99.90;;;;;;5106642;28;20020;-73
2021/04/07 08:08:31;;;;;;;40.92;21.45;;;2.20;99.90;;;;;;5101101;27;20024;-71
2021/04/07 08:10:57;;;;;;;42.05;21.15;;;2.20;99.90;;;;;;5094919;28;20492;-71
2021/04/07 08:13:29;;;;;;;37.42;20.60;;;2.20;99.90;;;;;;5121323;27;20027;-71
2021/04/07 08:15:57;;;;;;;41.55;22.70;;;2.30;99.90;;;;;;5134638;27;20475;-72
2021/04/07 08:18:24;;;;;;;42.13;22.08;;;2.30;99.90;;;;;;5126379;27;20118;-71
2021/04/07 08:20:50;;;;;;;46.17;24.35;;;2.30;99.90;;;;;;5133970;27;20027;-70
2021/04/07 08:23:19;;;;;;;43.40;23.75;;;2.30;99.90;;;;;;5114370;28;20368;-70
2021/04/07 08:25:51;;;;;;;45.70;24.60;;;2.30;99.90;;;;;;5113017;28;20063;-67
2021/04/07 08:28:17;;;;;;;48.67;27.75;;;2.20;99.90;;;;;;5113957;28;20020;-69
2021/04/07 08:30:43;;;;;;;48.08;25.77;;;2.30;99.90;;;;;;5115671;27;20099;-69
2021/04/07 08:33:09;;;;;;;53.72;28.45;;;2.30;99.90;;;;;;5114763;28;20123;-69
2021/04/07 08:35:35;;;;;;;47.65;26.83;;;2.40;99.90;;;;;;5114198;28;20085;-69
2021/04/07 08:38:04;;;;;;;56.65;30.60;;;2.40;99.90;;;;;;5097537;28;20114;-68
2021/04/07 08:40:42;;;;;;;54.13;29.98;;;2.50;99.90;;;;;;5093750;28;20016;-69
2021/04/07 08:43:10;;;;;;;49.45;29.13;;;2.50;99.90;;;;;;5112766;28;20034;-70
2021/04/07 08:45:44;;;;;;;50.53;28.17;;;2.50;99.90;;;;;;5113976;28;20039;-69
2021/04/07 08:48:18;;;;;;;56.13;31.45;;;2.50;99.90;;;;;;5121181;27;20063;-69
2021/04/07 08:50:45;;;;;;;50.85;29.88;;;2.50;99.90;;;;;;5113924;28;20099;-70
2021/04/07 08:53:13;;;;;;;48.15;24.85;;;2.50;99.90;;;;;;5112018;28;20035;-70
2021/04/07 08:55:49;;;;;;;52.40;30.20;;;2.50;99.90;;;;;;5113168;28;20031;-70
2021/04/07 08:58:23;;;;;;;57.33;31.52;;;2.40;99.90;;;;;;5113856;28;20487;-70
2021/04/07 09:00:53;;;;;;;54.22;30.73;;;2.40;99.90;;;;;;5109400;28;20503;-70
2021/04/07 09:03:22;;;;;;;49.75;30.17;;;2.40;99.90;;;;;;5113380;28;20052;-70
2021/04/07 09:05:49;;;;;;;49.97;28.85;;;2.50;99.90;;;;;;5112638;28;20024;-70
2021/04/07 09:08:17;;;;;;;39.88;27.33;;;2.60;99.90;;;;;;5110668;28;20358;-70
2021/04/07 09:10:46;;;;;;;37.90;25.10;;;2.70;99.90;;;;;;5087791;28;20024;-70
2021/04/07 09:13:14;;;;;;;40.40;25.40;;;2.70;99.90;;;;;;5104086;28;20019;-70
2021/04/07 09:16:01;;;;;;;38.45;23.10;;;2.70;99.90;;;;;;5108394;28;20055;-64
2021/04/07 09:18:35;;;;;;;40.05;23.40;;;2.70;99.90;;;;;;5099633;28;20520;-65
2021/04/07 09:21:02;;;;;;;35.63;21.23;;;2.80;99.90;;;;;;5090973;28;20035;-65
2021/04/07 09:23:32;;;;;;;39.22;24.55;;;2.80;99.90;;;;;;5114557;28;20050;-65
2021/04/07 09:26:07;;;;;;;36.33;23.85;;;2.90;99.90;;;;;;5112813;28;20441;-65
2021/04/07 09:28:36;;;;;;;43.80;26.05;;;2.90;99.90;;;;;;5112666;28;20030;-65
2021/04/07 09:31:07;;;;;;;37.65;24.42;;;3.10;99.90;;;;;;5113451;28;20384;-65
2021/04/07 09:33:37;;;;;;;34.13;21.70;;;3.20;99.90;;;;;;5113149;28;20027;-66
2021/04/07 09:36:04;;;;;;;34.83;23.10;;;3.30;99.90;;;;;;5112723;28;20030;-65
2021/04/07 09:38:31;;;;;;;29.88;17.90;;;3.20;99.90;;;;;;5114281;28;20106;-65
2021/04/07 09:41:18;;;;;;;33.83;21.40;;;3.20;99.90;;;;;;5113728;28;20480;-65
2021/04/07 09:43:44;;;;;;;33.53;22.10;;;3.20;99.90;;;;;;5113342;28;20104;-64
2021/04/07 09:46:10;;;;;;;32.28;21.92;;;3.30;99.90;;;;;;5111698;28;20468;-65
2021/04/07 09:48:45;;;;;;;33.70;22.05;;;3.40;99.90;;;;;;5113707;28;20020;-65
2021/04/07 09:51:25;;;;;;;32.47;21.80;;;3.60;99.90;;;;;;5112459;28;20031;-63
2021/04/07 09:53:53;;;;;;;31.50;19.80;;;3.80;99.90;;;;;;5113209;28;20365;-63
2021/04/07 09:56:19;;;;;;;31.23;20.83;;;3.90;99.90;;;;;;5112976;28;20114;-65
2021/04/07 09:58:47;;;;;;;26.27;18.88;;;4.10;99.90;;;;;;5113046;28;20114;-66
2021/04/07 10:01:15;;;;;;;24.58;16.17;;;4.80;99.90;;;;;;5113151;28;20063;-66
2021/04/07 10:03:49;;;;;;;20.23;14.68;;;5.30;99.90;;;;;;5112245;28;20502;-64
2021/04/07 10:06:20;;;;;;;20.63;15.45;;;5.30;99.90;;;;;;5115629;28;20026;-66
2021/04/07 10:08:45;;;;;;;19.63;13.13;;;5.30;99.90;;;;;;5117920;28;20106;-62
2021/04/07 10:11:11;;;;;;;18.88;12.70;;;5.20;99.90;;;;;;5117179;28;20062;-62
2021/04/07 10:13:37;;;;;;;14.85;9.25;;;5.20;99.90;;;;;;5117139;28;20047;-62
2021/04/07 10:16:13;;;;;;;14.48;8.77;;;5.50;99.90;;;;;;5116723;28;20027;-64
2021/04/07 10:18:39;;;;;;;11.80;8.57;;;5.60;99.90;;;;;;5115677;28;20035;-64
2021/04/07 10:21:14;;;;;;;12.90;7.50;;;6.30;99.90;;;;;;5116561;28;20046;-63
2021/04/07 10:23:40;;;;;;;12.43;5.40;;;7.60;99.90;;;;;;5116734;28;20409;-63
2021/04/07 10:26:06;;;;;;;11.82;5.78;;;8.50;99.90;;;;;;5114767;28;20035;-63
2021/04/07 10:28:32;;;;;;;9.93;5.70;;;9.30;99.90;;;;;;5116358;28;20024;-63
2021/04/07 10:30:57;;;;;;;9.10;4.90;;;9.30;99.90;;;;;;5116228;28;20072;-65
2021/04/07 10:33:27;;;;;;;9.82;5.60;;;9.90;99.90;;;;;;5116349;28;20024;-64
2021/04/07 10:35:59;;;;;;;6.25;4.38;;;9.80;99.90;;;;;;5114934;28;20020;-64
2021/04/07 10:38:29;;;;;;;5.95;4.72;;;9.40;99.90;;;;;;5116589;28;20534;-65
2021/04/07 10:40:59;;;;;;;10.60;4.80;;;8.90;99.90;;;;;;5115958;28;20089;-64
2021/04/07 10:43:32;;;;;;;9.60;5.50;;;9.00;99.90;;;;;;5115553;28;20073;-64
2021/04/07 10:46:01;;;;;;;12.52;5.10;;;8.50;99.90;;;;;;5116153;28;20059;-67
2021/04/07 10:48:28;;;;;;;11.60;5.25;;;7.70;99.90;;;;;;5116750;28;20020;-66
2021/04/07 10:50:54;;;;;;;13.40;6.05;;;7.30;99.90;;;;;;5115391;28;20123;-66
2021/04/07 10:53:38;;;;;;;12.32;5.80;;;7.30;99.90;;;;;;5098042;28;20031;-67
2021/04/07 10:56:20;;;;;;;10.70;5.72;;;7.20;99.90;;;;;;5116648;28;20024;-66
2021/04/07 10:59:03;;;;;;;14.57;7.97;;;6.90;99.90;;;;;;5114807;28;20139;-65
2021/04/07 11:01:34;;;;;;;15.48;9.50;;;6.70;99.90;;;;;;5116493;28;20031;-65
2021/04/07 11:04:18;;;;;;;27.45;17.27;;;6.60;99.90;;;;;;5114547;28;20056;-65
2021/04/07 11:06:45;;;;;;;25.48;18.52;;;6.20;99.90;;;;;;5114745;28;20049;-64
2021/04/07 11:09:13;;;;;;;31.15;19.65;;;5.80;99.90;;;;;;5116125;28;20047;-64
2021/04/07 11:11:41;;;;;;;37.80;23.60;;;5.60;99.90;;;;;;5115856;27;20084;-65
2021/04/07 11:14:09;;;;;;;62.30;35.33;;;5.40;99.90;;;;;;5116251;28;20049;-66
2021/04/07 11:16:36;;;;;;;76.35;43.17;;;5.30;99.90;;;;;;5115394;28;20022;-66
2021/04/07 11:19:12;;;;;;;80.63;47.22;;;5.30;99.90;;;;;;5116185;28;20073;-65
2021/04/07 11:21:38;;;;;;;71.57;40.67;;;5.10;99.90;;;;;;5115474;28;20083;-65
2021/04/07 11:24:04;;;;;;;53.35;31.73;;;4.80;99.90;;;;;;5115882;28;20031;-65
2021/04/07 11:26:29;;;;;;;54.65;30.42;;;4.70;99.90;;;;;;5114797;28;20525;-65
2021/04/07 11:28:55;;;;;;;52.88;30.05;;;4.70;99.90;;;;;;5115462;28;20027;-65
2021/04/07 11:31:23;;;;;;;48.47;27.15;;;4.70;99.90;;;;;;5114736;28;20051;-64
2021/04/07 11:33:52;;;;;;;51.40;29.08;;;4.70;99.90;;;;;;5115608;28;20043;-64
2021/04/07 11:36:23;;;;;;;50.92;29.20;;;4.70;99.90;;;;;;5115526;28;20023;-65
2021/04/07 11:38:53;;;;;;;55.72;30.63;;;4.60;99.90;;;;;;5114137;28;20070;-66
2021/04/07 11:46:35;;;;;;;85.05;50.10;;;4.60;99.90;;;;;;5114943;28;20035;-65
2021/04/07 11:49:03;;;;;;;81.97;48.40;;;4.50;99.90;;;;;;5115075;28;20027;-64
2021/04/07 11:51:28;;;;;;;55.38;33.70;;;4.60;99.90;;;;;;5114814;28;20026;-66
2021/04/07 11:53:54;;;;;;;48.60;29.52;;;4.70;99.90;;;;;;5113820;28;20450;-66
2021/04/07 11:56:20;;;;;;;42.83;26.58;;;4.90;99.90;;;;;;5115028;28;20040;-66
2021/04/07 11:58:45;;;;;;;41.35;25.58;;;5.20;99.90;;;;;;5113165;28;20024;-65
2021/04/07 12:01:13;;;;;;;42.90;25.20;;;5.30;99.90;;;;;;5114354;28;20027;-65
2021/04/07 12:03:39;;;;;;;36.00;22.38;;;5.30;99.90;;;;;;5114246;28;20067;-65
2021/04/07 12:06:04;;;;;;;21.65;13.77;;;5.20;99.90;;;;;;5114380;28;20490;-66
2021/04/07 12:08:30;;;;;;;15.15;8.23;;;5.10;99.90;;;;;;5114335;28;20043;-66
2021/04/07 12:11:00;;;;;;;5.60;2.65;;;4.80;99.90;;;;;;5113083;28;20388;-65
2021/04/07 12:13:26;;;;;;;6.78;3.17;;;4.60;99.90;;;;;;5114444;28;20031;-65
2021/04/07 12:15:52;;;;;;;6.20;2.28;;;4.60;99.90;;;;;;5115056;28;20357;-66
2021/04/07 12:18:18;;;;;;;8.05;1.67;;;4.50;99.90;;;;;;5114832;28;20031;-64
2021/04/07 12:20:44;;;;;;;4.68;1.50;;;4.50;99.90;;;;;;5113134;28;20464;-65
2021/04/07 12:23:09;;;;;;;7.18;1.50;;;4.50;99.90;;;;;;5114946;28;20055;-66
2021/04/07 12:25:35;;;;;;;3.83;1.30;;;4.70;99.90;;;;;;5115037;28;20016;-66
2021/04/07 12:28:00;;;;;;;4.63;1.23;;;4.90;99.90;;;;;;5095894;28;20024;-66
2021/04/07 12:30:26;;;;;;;8.30;1.70;;;5.10;99.90;;;;;;5114748;28;20035;-66
2021/04/07 12:32:52;;;;;;;6.55;1.50;;;5.10;99.90;;;;;;5097088;28;20020;-65
2021/04/07 12:35:18;;;;;;;5.32;1.60;;;5.00;99.90;;;;;;5113786;28;20051;-66
2021/04/07 12:37:44;;;;;;;8.68;3.03;;;5.00;99.90;;;;;;5114433;28;20480;-66
2021/04/07 12:40:11;;;;;;;7.75;1.50;;;5.10;99.90;;;;;;5114692;28;20459;-66
2021/04/07 12:42:37;;;;;;;7.63;1.35;;;5.30;99.90;;;;;;5114607;28;20051;-66
2021/04/07 12:45:05;;;;;;;9.50;1.27;;;5.40;99.90;;;;;;5114013;28;20027;-66
2021/04/07 12:47:31;;;;;;;9.18;1.67;;;5.50;99.90;;;;;;5112544;28;20048;-67